sensor_id;sensor_type;location;lat;lon;timestamp;P1;durP1;ratioP1;P2;durP2;ratioP2
44762;SDS011;30483;49.576;6.036;2024-02-23T04:32:57;3.78;;;1.08;;
44762;SDS011;30483;49.576;6.036;2024-02-23T04:35:23;3.97;;;1.00;;
44762;SDS011;30483;49.576;6.036;2024-02-23T04:37:49;3.45;;;1.15;;
44762;SDS011;30483;49.576;6.036;2024-02-23T04:40:15;4.63;;;1.00;;
44762;SDS011;30483;49.576;6.036;2024-02-23T04:42:42;3.47;;;1.00;;
44762;SDS011;30483;49.576;6.036;2024-02-23T04:45:10;3.80;;;0.70;;
44762;SDS011;30483;49.576;6.036;2024-02-23T04:47:35;4.35;;;1.35;;
44762;SDS011;30483;49.576;6.036;2024-02-23T04:50:01;4.95;;;1.23;;
44762;SDS011;30483;49.576;6.036;2024-02-23T04:52:28;2.88;;;0.90;;
44762;SDS011;30483;49.576;6.036;2024-02-23T04:54:54;7.05;;;1.35;;
44762;SDS011;30483;49.576;6.036;2024-02-23T04:57:20;4.63;;;1.15;;
44762;SDS011;30483;49.576;6.036;2024-02-23T04:59:45;4.80;;;1.38;;
44762;SDS011;30483;49.576;6.036;2024-02-23T05:02:11;7.00;;;1.30;;
44762;SDS011;30483;49.576;6.036;2024-02-23T05:04:36;4.38;;;1.15;;
44762;SDS011;30483;49.576;6.036;2024-02-23T05:07:02;6.95;;;1.15;;
44762;SDS011;30483;49.576;6.036;2024-02-23T05:09:28;5.22;;;1.10;;
44762;SDS011;30483;49.576;6.036;2024-02-23T05:11:54;6.57;;;1.20;;
44762;SDS011;30483;49.576;6.036;2024-02-23T05:14:20;4.80;;;1.13;;
44762;SDS011;30483;49.576;6.036;2024-02-23T05:16:45;5.55;;;1.10;;
44762;SDS011;30483;49.576;6.036;2024-02-23T05:19:11;5.55;;;1.23;;
44762;SDS011;30483;49.576;6.036;2024-02-23T05:21:36;7.00;;;1.33;;
44762;SDS011;30483;49.576;6.036;2024-02-23T05:24:02;5.15;;;1.35;;
44762;SDS011;30483;49.576;6.036;2024-02-23T05:26:28;4.38;;;1.45;;
44762;SDS011;30483;49.576;6.036;2024-02-23T05:28:53;6.55;;;1.55;;
44762;SDS011;30483;49.576;6.036;2024-02-23T05:31:19;6.18;;;1.60;;
44762;SDS011;30483;49.576;6.036;2024-02-23T05:33:44;4.78;;;1.10;;
44762;SDS011;30483;49.576;6.036;2024-02-23T05:36:10;6.63;;;1.42;;
44762;SDS011;30483;49.576;6.036;2024-02-23T05:38:36;4.97;;;1.33;;
44762;SDS011;30483;49.576;6.036;2024-02-23T05:41:01;5.75;;;1.30;;
44762;SDS011;30483;49.576;6.036;2024-02-23T05:43:27;5.00;;;1.15;;
44762;SDS011;30483;49.576;6.036;2024-02-23T05:45:52;4.07;;;1.10;;
44762;SDS011;30483;49.576;6.036;2024-02-23T05:48:22;4.20;;;1.20;;
44762;SDS011;30483;49.576;6.036;2024-02-23T05:50:47;5.78;;;1.23;;
44762;SDS011;30483;49.576;6.036;2024-02-23T05:53:13;5.38;;;1.27;;
44762;SDS011;30483;49.576;6.036;2024-02-23T05:55:38;4.20;;;1.10;;
44762;SDS011;30483;49.576;6.036;2024-02-23T05:58:04;2.50;;;0.88;;
44762;SDS011;30483;49.576;6.036;2024-02-23T06:00:30;4.85;;;1.13;;
44762;SDS011;30483;49.576;6.036;2024-02-23T06:02:56;4.82;;;1.15;;
44762;SDS011;30483;49.576;6.036;2024-02-23T06:05:22;3.85;;;1.13;;
44762;SDS011;30483;49.576;6.036;2024-02-23T06:07:48;4.97;;;1.20;;
44762;SDS011;30483;49.576;6.036;2024-02-23T06:10:13;3.58;;;1.10;;
44762;SDS011;30483;49.576;6.036;2024-02-23T06:12:39;6.00;;;1.20;;
44762;SDS011;30483;49.576;6.036;2024-02-23T06:15:05;5.15;;;1.50;;
44762;SDS011;30483;49.576;6.036;2024-02-23T06:17:31;5.68;;;1.33;;
44762;SDS011;30483;49.576;6.036;2024-02-23T06:19:56;3.00;;;0.93;;
44762;SDS011;30483;49.576;6.036;2024-02-23T06:22:23;3.95;;;0.98;;
44762;SDS011;30483;49.576;6.036;2024-02-23T06:24:50;6.38;;;1.30;;
44762;SDS011;30483;49.576;6.036;2024-02-23T06:27:16;8.32;;;1.73;;
44762;SDS011;30483;49.576;6.036;2024-02-23T06:29:42;7.07;;;1.50;;
44762;SDS011;30483;49.576;6.036;2024-02-23T06:32:07;6.40;;;1.42;;
44762;SDS011;30483;49.576;6.036;2024-02-23T06:34:33;5.95;;;1.45;;
44762;SDS011;30483;49.576;6.036;2024-02-23T06:36:58;4.10;;;0.90;;
44762;SDS011;30483;49.576;6.036;2024-02-23T06:39:24;4.47;;;1.23;;
44762;SDS011;30483;49.576;6.036;2024-02-23T06:41:49;6.07;;;1.45;;
44762;SDS011;30483;49.576;6.036;2024-02-23T06:44:15;4.15;;;1.27;;
44762;SDS011;30483;49.576;6.036;2024-02-23T06:46:41;4.63;;;1.13;;
44762;SDS011;30483;49.576;6.036;2024-02-23T06:49:07;6.13;;;1.33;;
44762;SDS011;30483;49.576;6.036;2024-02-23T06:51:33;5.43;;;1.52;;
44762;SDS011;30483;49.576;6.036;2024-02-23T06:54:04;7.05;;;1.38;;
44762;SDS011;30483;49.576;6.036;2024-02-23T06:56:30;4.32;;;1.40;;
44762;SDS011;30483;49.576;6.036;2024-02-23T06:58:56;4.90;;;1.30;;
44762;SDS011;30483;49.576;6.036;2024-02-23T07:01:22;4.18;;;1.20;;
44762;SDS011;30483;49.576;6.036;2024-02-23T07:03:48;6.35;;;1.27;;
44762;SDS011;30483;49.576;6.036;2024-02-23T07:06:20;4.88;;;1.27;;
44762;SDS011;30483;49.576;6.036;2024-02-23T07:08:46;5.03;;;1.40;;
44762;SDS011;30483;49.576;6.036;2024-02-23T07:11:12;4.35;;;1.27;;
44762;SDS011;30483;49.576;6.036;2024-02-23T07:13:38;5.93;;;1.60;;
44762;SDS011;30483;49.576;6.036;2024-02-23T07:16:03;5.25;;;1.08;;
44762;SDS011;30483;49.576;6.036;2024-02-23T07:18:29;4.60;;;1.25;;
44762;SDS011;30483;49.576;6.036;2024-02-23T07:20:55;6.05;;;1.58;;
44762;SDS011;30483;49.576;6.036;2024-02-23T07:23:20;4.15;;;1.10;;
44762;SDS011;30483;49.576;6.036;2024-02-23T07:25:47;4.78;;;1.27;;
44762;SDS011;30483;49.576;6.036;2024-02-23T07:28:15;4.20;;;1.15;;
44762;SDS011;30483;49.576;6.036;2024-02-23T07:30:43;3.03;;;1.00;;
44762;SDS011;30483;49.576;6.036;2024-02-23T07:33:08;4.18;;;1.30;;
44762;SDS011;30483;49.576;6.036;2024-02-23T07:35:34;5.93;;;1.35;;
44762;SDS011;30483;49.576;6.036;2024-02-23T07:38:00;2.92;;;1.23;;
44762;SDS011;30483;49.576;6.036;2024-02-23T07:40:25;5.05;;;1.27;;
44762;SDS011;30483;49.576;6.036;2024-02-23T07:42:51;4.38;;;1.13;;
44762;SDS011;30483;49.576;6.036;2024-02-23T07:45:16;6.35;;;1.35;;
44762;SDS011;30483;49.576;6.036;2024-02-23T07:47:42;5.80;;;1.13;;
44762;SDS011;30483;49.576;6.036;2024-02-23T07:50:08;5.32;;;1.27;;
44762;SDS011;30483;49.576;6.036;2024-02-23T07:52:33;4.60;;;1.30;;
44762;SDS011;30483;49.576;6.036;2024-02-23T07:54:59;6.57;;;1.40;;
44762;SDS011;30483;49.576;6.036;2024-02-23T07:57:27;5.00;;;1.27;;
44762;SDS011;30483;49.576;6.036;2024-02-23T07:59:53;5.38;;;1.40;;
44762;SDS011;30483;49.576;6.036;2024-02-23T08:02:19;4.78;;;1.25;;
44762;SDS011;30483;49.576;6.036;2024-02-23T08:04:44;3.85;;;1.10;;
44762;SDS011;30483;49.576;6.036;2024-02-23T08:07:12;3.75;;;1.30;;
44762;SDS011;30483;49.576;6.036;2024-02-23T08:09:42;4.88;;;1.17;;
44762;SDS011;30483;49.576;6.036;2024-02-23T08:12:08;3.78;;;0.93;;
44762;SDS011;30483;49.576;6.036;2024-02-23T08:14:33;2.58;;;0.82;;
44762;SDS011;30483;49.576;6.036;2024-02-23T08:16:59;6.78;;;1.27;;
44762;SDS011;30483;49.576;6.036;2024-02-23T08:19:25;4.68;;;1.25;;
44762;SDS011;30483;49.576;6.036;2024-02-23T08:21:50;4.25;;;1.10;;
44762;SDS011;30483;49.576;6.036;2024-02-23T08:24:16;3.67;;;1.17;;
44762;SDS011;30483;49.576;6.036;2024-02-23T08:26:42;3.35;;;1.20;;
44762;SDS011;30483;49.576;6.036;2024-02-23T08:29:08;4.80;;;1.30;;
44762;SDS011;30483;49.576;6.036;2024-02-23T08:31:33;4.40;;;1.33;;
44762;SDS011;30483;49.576;6.036;2024-02-23T08:33:59;4.50;;;1.33;;
44762;SDS011;30483;49.576;6.036;2024-02-23T08:36:25;7.78;;;1.60;;
44762;SDS011;30483;49.576;6.036;2024-02-23T08:38:50;7.55;;;1.80;;
44762;SDS011;30483;49.576;6.036;2024-02-23T08:41:16;4.95;;;1.20;;
44762;SDS011;30483;49.576;6.036;2024-02-23T08:43:42;7.32;;;1.55;;
44762;SDS011;30483;49.576;6.036;2024-02-23T08:46:08;6.95;;;1.40;;
44762;SDS011;30483;49.576;6.036;2024-02-23T08:48:34;6.10;;;1.58;;
44762;SDS011;30483;49.576;6.036;2024-02-23T08:51:00;7.78;;;2.05;;
44762;SDS011;30483;49.576;6.036;2024-02-23T08:53:26;7.78;;;1.67;;
44762;SDS011;30483;49.576;6.036;2024-02-23T08:55:52;4.78;;;1.33;;
44762;SDS011;30483;49.576;6.036;2024-02-23T08:58:18;8.90;;;1.50;;
44762;SDS011;30483;49.576;6.036;2024-02-23T09:00:43;6.82;;;1.45;;
44762;SDS011;30483;49.576;6.036;2024-02-23T09:03:09;8.15;;;1.60;;
44762;SDS011;30483;49.576;6.036;2024-02-23T09:05:34;5.78;;;1.60;;
44762;SDS011;30483;49.576;6.036;2024-02-23T09:08:00;6.80;;;1.40;;
44762;SDS011;30483;49.576;6.036;2024-02-23T09:10:25;7.07;;;1.50;;
44762;SDS011;30483;49.576;6.036;2024-02-23T09:12:51;4.82;;;1.20;;
44762;SDS011;30483;49.576;6.036;2024-02-23T09:15:17;6.68;;;1.50;;
44762;SDS011;30483;49.576;6.036;2024-02-23T09:17:42;6.05;;;1.50;;
44762;SDS011;30483;49.576;6.036;2024-02-23T09:20:08;6.25;;;1.70;;
44762;SDS011;30483;49.576;6.036;2024-02-23T09:22:34;4.57;;;1.45;;
44762;SDS011;30483;49.576;6.036;2024-02-23T09:25:01;5.05;;;1.52;;
44762;SDS011;30483;49.576;6.036;2024-02-23T09:27:27;7.57;;;1.60;;
44762;SDS011;30483;49.576;6.036;2024-02-23T09:29:53;4.20;;;1.35;;
44762;SDS011;30483;49.576;6.036;2024-02-23T09:32:19;4.45;;;1.10;;
44762;SDS011;30483;49.576;6.036;2024-02-23T09:34:44;7.20;;;1.40;;
44762;SDS011;30483;49.576;6.036;2024-02-23T09:37:10;5.55;;;1.58;;
44762;SDS011;30483;49.576;6.036;2024-02-23T09:39:35;4.70;;;1.30;;
44762;SDS011;30483;49.576;6.036;2024-02-23T09:42:01;4.85;;;1.20;;
44762;SDS011;30483;49.576;6.036;2024-02-23T09:44:33;5.00;;;1.33;;
44762;SDS011;30483;49.576;6.036;2024-02-23T09:47:00;4.82;;;1.08;;
44762;SDS011;30483;49.576;6.036;2024-02-23T09:49:32;3.95;;;1.20;;
44762;SDS011;30483;49.576;6.036;2024-02-23T09:52:08;5.50;;;1.50;;
44762;SDS011;30483;49.576;6.036;2024-02-23T09:54:36;4.60;;;1.40;;
44762;SDS011;30483;49.576;6.036;2024-02-23T09:57:04;4.53;;;1.20;;
44762;SDS011;30483;49.576;6.036;2024-02-23T09:59:34;4.80;;;1.20;;
44762;SDS011;30483;49.576;6.036;2024-02-23T10:02:01;6.38;;;1.75;;
44762;SDS011;30483;49.576;6.036;2024-02-23T10:04:28;4.72;;;1.40;;
44762;SDS011;30483;49.576;6.036;2024-02-23T10:06:56;3.58;;;1.20;;
44762;SDS011;30483;49.576;6.036;2024-02-23T10:09:21;4.88;;;1.40;;
44762;SDS011;30483;49.576;6.036;2024-02-23T10:11:53;4.35;;;1.27;;
44762;SDS011;30483;49.576;6.036;2024-02-23T10:14:20;5.30;;;1.38;;
44762;SDS011;30483;49.576;6.036;2024-02-23T10:16:46;6.10;;;1.60;;
44762;SDS011;30483;49.576;6.036;2024-02-23T10:19:12;4.25;;;1.10;;
44762;SDS011;30483;49.576;6.036;2024-02-23T10:21:37;4.93;;;1.38;;
44762;SDS011;30483;49.576;6.036;2024-02-23T10:24:04;3.95;;;1.30;;
44762;SDS011;30483;49.576;6.036;2024-02-23T10:26:31;4.43;;;1.23;;
44762;SDS011;30483;49.576;6.036;2024-02-23T10:28:57;2.95;;;1.10;;
44762;SDS011;30483;49.576;6.036;2024-02-23T10:31:23;5.32;;;1.30;;
44762;SDS011;30483;49.576;6.036;2024-02-23T10:33:50;4.18;;;1.30;;
44762;SDS011;30483;49.576;6.036;2024-02-23T10:36:18;5.07;;;1.30;;
44762;SDS011;30483;49.576;6.036;2024-02-23T10:38:44;3.25;;;1.10;;
44762;SDS011;30483;49.576;6.036;2024-02-23T10:41:12;3.50;;;1.40;;
44762;SDS011;30483;49.576;6.036;2024-02-23T10:43:42;4.43;;;1.33;;
44762;SDS011;30483;49.576;6.036;2024-02-23T10:46:12;5.10;;;1.52;;
44762;SDS011;30483;49.576;6.036;2024-02-23T10:48:40;7.55;;;1.50;;
44762;SDS011;30483;49.576;6.036;2024-02-23T10:51:07;6.88;;;1.15;;
44762;SDS011;30483;49.576;6.036;2024-02-23T10:53:33;5.93;;;1.30;;
44762;SDS011;30483;49.576;6.036;2024-02-23T10:55:59;4.80;;;1.30;;
44762;SDS011;30483;49.576;6.036;2024-02-23T10:58:26;6.82;;;1.30;;
44762;SDS011;30483;49.576;6.036;2024-02-23T11:00:52;4.00;;;0.90;;
44762;SDS011;30483;49.576;6.036;2024-02-23T11:03:24;6.72;;;1.20;;
44762;SDS011;30483;49.576;6.036;2024-02-23T11:05:50;7.45;;;1.23;;
44762;SDS011;30483;49.576;6.036;2024-02-23T11:08:18;4.78;;;0.93;;
44762;SDS011;30483;49.576;6.036;2024-02-23T11:10:51;7.82;;;1.40;;
44762;SDS011;30483;49.576;6.036;2024-02-23T11:13:38;7.13;;;1.17;;
44762;SDS011;30483;49.576;6.036;2024-02-23T11:16:05;5.97;;;1.30;;
44762;SDS011;30483;49.576;6.036;2024-02-23T11:18:31;5.28;;;1.23;;
44762;SDS011;30483;49.576;6.036;2024-02-23T11:21:04;3.67;;;1.13;;
44762;SDS011;30483;49.576;6.036;2024-02-23T11:26:12;3.78;;;1.10;;
44762;SDS011;30483;49.576;6.036;2024-02-23T11:28:41;4.63;;;1.15;;
44762;SDS011;30483;49.576;6.036;2024-02-23T11:31:15;4.95;;;1.40;;
44762;SDS011;30483;49.576;6.036;2024-02-23T11:33:48;2.60;;;1.15;;
44762;SDS011;30483;49.576;6.036;2024-02-23T11:36:37;6.70;;;1.45;;
44762;SDS011;30483;49.576;6.036;2024-02-23T11:39:04;5.57;;;1.17;;
44762;SDS011;30483;49.576;6.036;2024-02-23T11:41:30;5.68;;;1.30;;
44762;SDS011;30483;49.576;6.036;2024-02-23T11:43:56;5.68;;;1.30;;
44762;SDS011;30483;49.576;6.036;2024-02-23T11:46:23;4.05;;;1.23;;
44762;SDS011;30483;49.576;6.036;2024-02-23T11:48:49;4.00;;;1.10;;
44762;SDS011;30483;49.576;6.036;2024-02-23T11:51:21;4.22;;;1.38;;
44762;SDS011;30483;49.576;6.036;2024-02-23T11:53:48;2.97;;;1.00;;
44762;SDS011;30483;49.576;6.036;2024-02-23T11:56:14;5.85;;;1.40;;
44762;SDS011;30483;49.576;6.036;2024-02-23T11:58:40;4.90;;;1.13;;
44762;SDS011;30483;49.576;6.036;2024-02-23T12:01:06;4.78;;;0.98;;
44762;SDS011;30483;49.576;6.036;2024-02-23T12:03:32;2.63;;;0.70;;
44762;SDS011;30483;49.576;6.036;2024-02-23T12:05:58;4.35;;;1.27;;
44762;SDS011;30483;49.576;6.036;2024-02-23T12:08:27;5.30;;;1.48;;
44762;SDS011;30483;49.576;6.036;2024-02-23T12:10:55;3.97;;;1.08;;
44762;SDS011;30483;49.576;6.036;2024-02-23T12:13:21;4.53;;;1.35;;
44762;SDS011;30483;49.576;6.036;2024-02-23T12:15:52;4.22;;;1.20;;
44762;SDS011;30483;49.576;6.036;2024-02-23T12:18:22;5.65;;;1.38;;
44762;SDS011;30483;49.576;6.036;2024-02-23T12:21:00;3.08;;;0.95;;
44762;SDS011;30483;49.576;6.036;2024-02-23T12:26:07;4.10;;;1.10;;
44762;SDS011;30483;49.576;6.036;2024-02-23T12:28:34;2.90;;;0.98;;
44762;SDS011;30483;49.576;6.036;2024-02-23T12:31:00;3.70;;;1.10;;
44762;SDS011;30483;49.576;6.036;2024-02-23T12:33:27;3.90;;;1.10;;
44762;SDS011;30483;49.576;6.036;2024-02-23T12:35:54;3.20;;;0.95;;
44762;SDS011;30483;49.576;6.036;2024-02-23T12:38:21;4.45;;;1.13;;
44762;SDS011;30483;49.576;6.036;2024-02-23T12:40:47;4.05;;;0.93;;
44762;SDS011;30483;49.576;6.036;2024-02-23T12:43:12;4.00;;;1.00;;
44762;SDS011;30483;49.576;6.036;2024-02-23T12:45:38;3.88;;;1.20;;
44762;SDS011;30483;49.576;6.036;2024-02-23T12:48:05;6.82;;;1.25;;
44762;SDS011;30483;49.576;6.036;2024-02-23T12:50:31;5.60;;;1.30;;
44762;SDS011;30483;49.576;6.036;2024-02-23T12:52:57;4.97;;;1.23;;
44762;SDS011;30483;49.576;6.036;2024-02-23T12:55:23;10.85;;;5.03;;
44762;SDS011;30483;49.576;6.036;2024-02-23T12:57:48;5.25;;;2.25;;
44762;SDS011;30483;49.576;6.036;2024-02-23T13:00:14;8.85;;;2.08;;
44762;SDS011;30483;49.576;6.036;2024-02-23T13:02:40;5.15;;;1.75;;
44762;SDS011;30483;49.576;6.036;2024-02-23T13:05:06;4.93;;;1.83;;
44762;SDS011;30483;49.576;6.036;2024-02-23T13:07:32;2.50;;;1.13;;
44762;SDS011;30483;49.576;6.036;2024-02-23T13:09:58;3.80;;;1.55;;
44762;SDS011;30483;49.576;6.036;2024-02-23T13:12:23;2.65;;;1.38;;
44762;SDS011;30483;49.576;6.036;2024-02-23T13:14:50;3.60;;;1.48;;
44762;SDS011;30483;49.576;6.036;2024-02-23T13:17:16;4.10;;;1.55;;
44762;SDS011;30483;49.576;6.036;2024-02-23T13:19:42;4.07;;;1.60;;
44762;SDS011;30483;49.576;6.036;2024-02-23T13:22:08;3.55;;;1.50;;
44762;SDS011;30483;49.576;6.036;2024-02-23T13:24:34;4.60;;;1.60;;
44762;SDS011;30483;49.576;6.036;2024-02-23T13:27:00;3.75;;;1.30;;
44762;SDS011;30483;49.576;6.036;2024-02-23T13:29:25;3.40;;;1.20;;
44762;SDS011;30483;49.576;6.036;2024-02-23T13:31:51;3.85;;;1.40;;
44762;SDS011;30483;49.576;6.036;2024-02-23T13:34:17;4.07;;;1.40;;
44762;SDS011;30483;49.576;6.036;2024-02-23T13:36:43;2.95;;;1.40;;
44762;SDS011;30483;49.576;6.036;2024-02-23T13:39:09;5.47;;;1.40;;
44762;SDS011;30483;49.576;6.036;2024-02-23T13:41:34;2.85;;;1.38;;
44762;SDS011;30483;49.576;6.036;2024-02-23T13:44:00;2.95;;;1.20;;
44762;SDS011;30483;49.576;6.036;2024-02-23T13:46:26;2.63;;;1.25;;
44762;SDS011;30483;49.576;6.036;2024-02-23T13:49:02;3.20;;;1.27;;
44762;SDS011;30483;49.576;6.036;2024-02-23T13:51:29;3.60;;;1.10;;
44762;SDS011;30483;49.576;6.036;2024-02-23T13:53:55;2.45;;;1.10;;
44762;SDS011;30483;49.576;6.036;2024-02-23T13:56:21;3.08;;;1.20;;
44762;SDS011;30483;49.576;6.036;2024-02-23T13:58:46;2.95;;;1.17;;
44762;SDS011;30483;49.576;6.036;2024-02-23T14:01:13;3.33;;;1.13;;
44762;SDS011;30483;49.576;6.036;2024-02-23T14:03:40;2.38;;;1.10;;
44762;SDS011;30483;49.576;6.036;2024-02-23T14:06:05;3.22;;;1.02;;
44762;SDS011;30483;49.576;6.036;2024-02-23T14:08:31;3.75;;;0.90;;
44762;SDS011;30483;49.576;6.036;2024-02-23T14:10:59;2.90;;;1.10;;
44762;SDS011;30483;49.576;6.036;2024-02-23T14:13:25;4.30;;;1.10;;
44762;SDS011;30483;49.576;6.036;2024-02-23T14:15:51;2.25;;;0.90;;
44762;SDS011;30483;49.576;6.036;2024-02-23T14:18:16;2.72;;;1.20;;
44762;SDS011;30483;49.576;6.036;2024-02-23T14:20:43;3.35;;;1.00;;
44762;SDS011;30483;49.576;6.036;2024-02-23T14:23:08;3.22;;;0.90;;
44762;SDS011;30483;49.576;6.036;2024-02-23T14:25:34;1.92;;;0.95;;
44762;SDS011;30483;49.576;6.036;2024-02-23T14:27:59;2.85;;;1.10;;
44762;SDS011;30483;49.576;6.036;2024-02-23T14:30:25;3.60;;;1.10;;
44762;SDS011;30483;49.576;6.036;2024-02-23T14:32:51;2.65;;;1.00;;
44762;SDS011;30483;49.576;6.036;2024-02-23T14:35:16;2.05;;;0.80;;
44762;SDS011;30483;49.576;6.036;2024-02-23T14:37:42;2.42;;;0.90;;
44762;SDS011;30483;49.576;6.036;2024-02-23T14:40:07;2.17;;;0.90;;
44762;SDS011;30483;49.576;6.036;2024-02-23T14:42:33;3.80;;;1.20;;
44762;SDS011;30483;49.576;6.036;2024-02-23T14:44:59;2.08;;;1.00;;
44762;SDS011;30483;49.576;6.036;2024-02-23T14:47:25;3.28;;;1.00;;
44762;SDS011;30483;49.576;6.036;2024-02-23T14:49:50;4.40;;;0.98;;
44762;SDS011;30483;49.576;6.036;2024-02-23T14:52:16;2.92;;;0.85;;
44762;SDS011;30483;49.576;6.036;2024-02-23T14:54:42;3.33;;;1.13;;
44762;SDS011;30483;49.576;6.036;2024-02-23T14:57:07;2.17;;;0.90;;
44762;SDS011;30483;49.576;6.036;2024-02-23T14:59:33;4.03;;;0.90;;
44762;SDS011;30483;49.576;6.036;2024-02-23T15:02:06;1.80;;;0.85;;
44762;SDS011;30483;49.576;6.036;2024-02-23T15:04:32;2.60;;;0.88;;
44762;SDS011;30483;49.576;6.036;2024-02-23T15:06:58;1.77;;;0.75;;
44762;SDS011;30483;49.576;6.036;2024-02-23T15:09:24;3.70;;;1.00;;
44762;SDS011;30483;49.576;6.036;2024-02-23T15:11:49;2.85;;;0.77;;
44762;SDS011;30483;49.576;6.036;2024-02-23T15:14:15;2.03;;;0.90;;
44762;SDS011;30483;49.576;6.036;2024-02-23T15:16:40;1.60;;;0.65;;
44762;SDS011;30483;49.576;6.036;2024-02-23T15:19:06;1.75;;;0.80;;
44762;SDS011;30483;49.576;6.036;2024-02-23T15:21:31;3.80;;;0.93;;
44762;SDS011;30483;49.576;6.036;2024-02-23T15:23:57;1.80;;;0.68;;
44762;SDS011;30483;49.576;6.036;2024-02-23T15:26:23;2.58;;;0.70;;
44762;SDS011;30483;49.576;6.036;2024-02-23T15:28:49;1.85;;;0.95;;
44762;SDS011;30483;49.576;6.036;2024-02-23T15:31:14;2.05;;;0.80;;
44762;SDS011;30483;49.576;6.036;2024-02-23T15:33:40;2.90;;;0.80;;
44762;SDS011;30483;49.576;6.036;2024-02-23T15:36:06;2.65;;;0.80;;
44762;SDS011;30483;49.576;6.036;2024-02-23T15:38:33;1.60;;;0.60;;
44762;SDS011;30483;49.576;6.036;2024-02-23T15:41:02;1.67;;;0.70;;
44762;SDS011;30483;49.576;6.036;2024-02-23T15:43:28;1.92;;;0.57;;
44762;SDS011;30483;49.576;6.036;2024-02-23T15:45:54;1.20;;;0.70;;
44762;SDS011;30483;49.576;6.036;2024-02-23T15:48:20;1.35;;;0.60;;
44762;SDS011;30483;49.576;6.036;2024-02-23T15:50:45;2.00;;;0.73;;
44762;SDS011;30483;49.576;6.036;2024-02-23T15:53:11;2.08;;;0.60;;
44762;SDS011;30483;49.576;6.036;2024-02-23T15:55:37;1.95;;;0.80;;
44762;SDS011;30483;49.576;6.036;2024-02-23T15:58:02;1.30;;;0.60;;
44762;SDS011;30483;49.576;6.036;2024-02-23T16:00:28;3.20;;;1.10;;
44762;SDS011;30483;49.576;6.036;2024-02-23T16:02:54;3.88;;;0.90;;
44762;SDS011;30483;49.576;6.036;2024-02-23T16:05:20;2.05;;;0.73;;
44762;SDS011;30483;49.576;6.036;2024-02-23T16:07:45;3.40;;;0.77;;
44762;SDS011;30483;49.576;6.036;2024-02-23T16:10:14;2.75;;;0.70;;
44762;SDS011;30483;49.576;6.036;2024-02-23T16:12:40;2.60;;;0.98;;
44762;SDS011;30483;49.576;6.036;2024-02-23T16:15:06;2.80;;;0.90;;
44762;SDS011;30483;49.576;6.036;2024-02-23T16:17:34;1.85;;;0.70;;
44762;SDS011;30483;49.576;6.036;2024-02-23T16:20:00;2.45;;;0.80;;
44762;SDS011;30483;49.576;6.036;2024-02-23T16:22:26;1.20;;;0.60;;
44762;SDS011;30483;49.576;6.036;2024-02-23T16:24:52;2.70;;;0.95;;
44762;SDS011;30483;49.576;6.036;2024-02-23T16:27:17;2.05;;;1.00;;
44762;SDS011;30483;49.576;6.036;2024-02-23T16:29:43;2.83;;;0.90;;
44762;SDS011;30483;49.576;6.036;2024-02-23T16:32:08;3.03;;;1.00;;
44762;SDS011;30483;49.576;6.036;2024-02-23T16:34:34;1.98;;;0.80;;
44762;SDS011;30483;49.576;6.036;2024-02-23T16:36:59;2.25;;;0.75;;
44762;SDS011;30483;49.576;6.036;2024-02-23T16:39:25;3.38;;;1.00;;
44762;SDS011;30483;49.576;6.036;2024-02-23T16:41:51;1.15;;;0.73;;
44762;SDS011;30483;49.576;6.036;2024-02-23T16:44:17;2.70;;;1.10;;
44762;SDS011;30483;49.576;6.036;2024-02-23T16:46:45;2.55;;;0.80;;
44762;SDS011;30483;49.576;6.036;2024-02-23T16:49:11;2.25;;;0.65;;
44762;SDS011;30483;49.576;6.036;2024-02-23T16:51:37;1.67;;;1.00;;
44762;SDS011;30483;49.576;6.036;2024-02-23T16:54:03;1.38;;;0.75;;
44762;SDS011;30483;49.576;6.036;2024-02-23T16:56:29;1.98;;;1.00;;
44762;SDS011;30483;49.576;6.036;2024-02-23T16:58:55;1.65;;;0.70;;
44762;SDS011;30483;49.576;6.036;2024-02-23T17:01:20;1.30;;;0.80;;
44762;SDS011;30483;49.576;6.036;2024-02-23T17:03:46;1.02;;;0.60;;
44762;SDS011;30483;49.576;6.036;2024-02-23T17:06:12;1.67;;;0.57;;
44762;SDS011;30483;49.576;6.036;2024-02-23T17:08:37;1.15;;;0.50;;
44762;SDS011;30483;49.576;6.036;2024-02-23T17:11:05;2.03;;;0.80;;
44762;SDS011;30483;49.576;6.036;2024-02-23T17:13:31;2.13;;;0.60;;
44762;SDS011;30483;49.576;6.036;2024-02-23T17:15:57;2.47;;;0.50;;
44762;SDS011;30483;49.576;6.036;2024-02-23T17:18:23;1.75;;;0.70;;
44762;SDS011;30483;49.576;6.036;2024-02-23T17:20:49;1.42;;;0.70;;
44762;SDS011;30483;49.576;6.036;2024-02-23T17:23:18;1.60;;;0.63;;
44762;SDS011;30483;49.576;6.036;2024-02-23T17:25:44;2.05;;;0.82;;
44762;SDS011;30483;49.576;6.036;2024-02-23T17:28:10;1.60;;;0.70;;
44762;SDS011;30483;49.576;6.036;2024-02-23T17:30:40;1.45;;;0.70;;
44762;SDS011;30483;49.576;6.036;2024-02-23T17:33:05;2.25;;;0.98;;
44762;SDS011;30483;49.576;6.036;2024-02-23T17:35:31;2.65;;;0.90;;
44762;SDS011;30483;49.576;6.036;2024-02-23T17:37:57;1.60;;;0.75;;
44762;SDS011;30483;49.576;6.036;2024-02-23T17:40:23;1.45;;;0.80;;
44762;SDS011;30483;49.576;6.036;2024-02-23T17:42:50;1.88;;;1.13;;
44762;SDS011;30483;49.576;6.036;2024-02-23T17:45:16;3.78;;;1.60;;
44762;SDS011;30483;49.576;6.036;2024-02-23T17:47:41;1.48;;;0.90;;
44762;SDS011;30483;49.576;6.036;2024-02-23T17:50:07;1.85;;;1.00;;
44762;SDS011;30483;49.576;6.036;2024-02-23T17:52:34;2.10;;;0.98;;
44762;SDS011;30483;49.576;6.036;2024-02-23T17:55:00;1.95;;;0.88;;
44762;SDS011;30483;49.576;6.036;2024-02-23T17:57:25;2.88;;;1.30;;
44762;SDS011;30483;49.576;6.036;2024-02-23T17:59:51;1.70;;;0.90;;
44762;SDS011;30483;49.576;6.036;2024-02-23T18:02:17;1.55;;;0.98;;
44762;SDS011;30483;49.576;6.036;2024-02-23T18:04:44;1.80;;;0.70;;
44762;SDS011;30483;49.576;6.036;2024-02-23T18:07:12;2.28;;;0.95;;
44762;SDS011;30483;49.576;6.036;2024-02-23T18:09:38;2.15;;;1.00;;
44762;SDS011;30483;49.576;6.036;2024-02-23T18:12:04;2.00;;;0.80;;
44762;SDS011;30483;49.576;6.036;2024-02-23T18:14:30;1.55;;;0.98;;
44762;SDS011;30483;49.576;6.036;2024-02-23T18:16:57;2.78;;;1.00;;
44762;SDS011;30483;49.576;6.036;2024-02-23T18:19:23;1.95;;;1.02;;
44762;SDS011;30483;49.576;6.036;2024-02-23T18:21:48;1.45;;;0.90;;
44762;SDS011;30483;49.576;6.036;2024-02-23T18:24:14;1.95;;;0.90;;
44762;SDS011;30483;49.576;6.036;2024-02-23T18:26:40;3.22;;;1.10;;
44762;SDS011;30483;49.576;6.036;2024-02-23T18:29:06;2.25;;;1.00;;
44762;SDS011;30483;49.576;6.036;2024-02-23T18:31:31;2.88;;;1.35;;
44762;SDS011;30483;49.576;6.036;2024-02-23T18:33:57;1.17;;;0.82;;
44762;SDS011;30483;49.576;6.036;2024-02-23T18:36:23;1.55;;;0.90;;
44762;SDS011;30483;49.576;6.036;2024-02-23T18:38:48;2.63;;;1.10;;
44762;SDS011;30483;49.576;6.036;2024-02-23T18:41:14;2.53;;;1.00;;
44762;SDS011;30483;49.576;6.036;2024-02-23T18:43:40;2.08;;;1.00;;
44762;SDS011;30483;49.576;6.036;2024-02-23T18:46:09;2.80;;;1.20;;
44762;SDS011;30483;49.576;6.036;2024-02-23T18:48:41;1.90;;;0.98;;
44762;SDS011;30483;49.576;6.036;2024-02-23T18:51:07;2.35;;;1.00;;
44762;SDS011;30483;49.576;6.036;2024-02-23T18:53:33;2.17;;;1.10;;
44762;SDS011;30483;49.576;6.036;2024-02-23T18:55:59;1.83;;;1.10;;
44762;SDS011;30483;49.576;6.036;2024-02-23T18:58:24;1.73;;;1.00;;
44762;SDS011;30483;49.576;6.036;2024-02-23T19:00:50;3.40;;;1.30;;
44762;SDS011;30483;49.576;6.036;2024-02-23T19:03:21;2.10;;;1.40;;
44762;SDS011;30483;49.576;6.036;2024-02-23T19:05:47;3.60;;;1.20;;
44762;SDS011;30483;49.576;6.036;2024-02-23T19:08:13;3.33;;;1.00;;
44762;SDS011;30483;49.576;6.036;2024-02-23T19:10:38;3.97;;;1.75;;
44762;SDS011;30483;49.576;6.036;2024-02-23T19:13:05;2.40;;;1.38;;
44762;SDS011;30483;49.576;6.036;2024-02-23T19:15:35;3.88;;;1.40;;
44762;SDS011;30483;49.576;6.036;2024-02-23T19:18:02;2.47;;;1.25;;
44762;SDS011;30483;49.576;6.036;2024-02-23T19:20:28;2.20;;;1.20;;